Time;durP1;ratioP1;P1;durP2;ratioP2;P2;SDS_P1;SDS_P2;PMS_P1;PMS_P2;Temp;Humidity;BMP_temperature;BMP_pressure;BME280_temperature;BME280_humidity;BME280_pressure;Samples;Min_cycle;Max_cycle;Signal;HPM_P1;HPM_P2
2022/03/15 00:01:25;;;;;;;50.35;29.60;;;;;;;1.01;60.75;100808.20;1690043;83;22038;-67
2022/03/15 00:03:54;;;;;;;50.50;30.32;;;;;;;1.04;60.76;100809.94;1710862;82;20967;-66
2022/03/15 00:06:21;;;;;;;51.20;31.23;;;;;;;1.04;60.86;100813.36;1754473;81;20893;-67
2022/03/15 00:08:48;;;;;;;41.63;29.40;;;;;;;1.05;60.88;100808.64;1752824;81;21520;-67
2022/03/15 00:11:15;;;;;;;47.30;31.12;;;;;;;1.04;60.87;100804.36;1751920;80;21462;-67
2022/03/15 00:13:41;;;;;;;49.77;29.12;;;;;;;0.98;60.78;100810.74;1744220;80;20941;-66
2022/03/15 00:16:10;;;;;;;52.97;30.53;;;;;;;0.95;60.95;100800.83;1752596;80;20956;-67
2022/03/15 00:18:37;;;;;;;44.10;28.65;;;;;;;0.95;60.96;100804.25;1719629;82;20922;-67
2022/03/15 00:21:07;;;;;;;49.50;31.70;;;;;;;0.97;61.03;100805.57;1734876;81;20949;-67
2022/03/15 00:23:34;;;;;;;46.40;30.17;;;;;;;0.93;60.92;100798.27;1738371;82;20909;-67
2022/03/15 00:26:00;;;;;;;51.77;31.87;;;;;;;0.86;60.92;100794.75;1742473;81;21094;-67
2022/03/15 00:28:29;;;;;;;54.17;33.47;;;;;;;0.78;60.91;100795.53;1717904;82;20914;-67
2022/03/15 00:30:55;;;;;;;56.80;34.00;;;;;;;0.65;60.95;100794.13;1716475;82;21403;-67
2022/03/15 00:33:25;;;;;;;48.68;29.05;;;;;;;0.56;61.06;100790.19;1743405;81;20980;-67
2022/03/15 00:35:51;;;;;;;45.05;30.48;;;;;;;0.52;61.23;100783.27;1707432;82;20999;-67
2022/03/15 00:38:17;;;;;;;43.05;27.60;;;;;;;0.46;61.21;100788.36;1739350;81;21075;-67
2022/03/15 00:40:44;;;;;;;43.30;27.80;;;;;;;0.47;61.42;100787.50;1740399;81;20866;-67
2022/03/15 00:43:12;;;;;;;49.43;30.20;;;;;;;0.53;61.77;100782.42;1748417;80;20925;-66
2022/03/15 00:45:38;;;;;;;42.85;29.00;;;;;;;0.53;61.77;100782.42;1749391;80;21305;-67
2022/03/15 00:48:07;;;;;;;52.47;33.40;;;;;;;0.55;61.47;100785.02;1750882;80;20904;-67
2022/03/15 00:50:36;;;;;;;62.45;39.75;;;;;;;0.51;61.45;100794.41;1754592;80;21075;-67
2022/03/15 00:53:03;;;;;;;48.48;29.67;;;;;;;0.45;61.49;100793.06;1753252;81;21455;-67
2022/03/15 00:55:30;;;;;;;47.75;29.27;;;;;;;0.40;61.62;100785.72;1753325;80;20973;-67
2022/03/15 00:57:57;;;;;;;47.67;30.57;;;;;;;0.43;61.68;100776.33;1716809;82;26436;-67
2022/03/15 01:00:25;;;;;;;44.30;29.47;;;;;;;0.41;61.64;100773.30;1713205;82;20952;-67
2022/03/15 01:02:52;;;;;;;52.55;29.80;;;;;;;0.32;61.67;100779.63;1720765;82;21039;-67
2022/03/15 01:05:18;;;;;;;44.30;29.25;;;;;;;0.31;61.87;100772.75;1716531;82;20919;-67
2022/03/15 01:07:45;;;;;;;47.77;30.33;;;;;;;0.36;62.04;100776.23;1720336;82;20912;-67
2022/03/15 01:10:12;;;;;;;45.45;29.00;;;;;;;0.39;62.01;100768.56;1709866;82;20942;-67
2022/03/15 01:12:44;;;;;;;51.95;31.65;;;;;;;0.43;62.09;100760.06;1744904;81;21439;-67
2022/03/15 01:15:11;;;;;;;51.02;30.65;;;;;;;0.45;62.02;100762.23;1709891;82;21116;-67
2022/03/15 01:17:40;;;;;;;47.88;29.70;;;;;;;0.39;62.00;100763.42;1713118;82;20935;-66
2022/03/15 01:20:09;;;;;;;49.90;30.27;;;;;;;0.36;62.03;100758.25;1748911;81;20885;-67
2022/03/15 01:22:35;;;;;;;46.53;29.52;;;;;;;0.33;62.12;100755.66;1749796;80;21565;-67
2022/03/15 01:25:02;;;;;;;45.80;30.73;;;;;;;0.33;62.34;100758.22;1751177;80;20922;-67
2022/03/15 01:27:29;;;;;;;45.05;30.48;;;;;;;0.33;62.34;100758.22;1744934;81;21418;-66
2022/03/15 01:29:57;;;;;;;43.25;29.82;;;;;;;0.31;62.23;100759.91;1715254;82;21001;-67
2022/03/15 01:32:24;;;;;;;45.50;29.90;;;;;;;0.30;62.37;100750.48;1709983;82;21490;-67
2022/03/15 01:34:51;;;;;;;49.23;30.30;;;;;;;0.32;62.43;100746.23;1711647;82;20962;-66
2022/03/15 01:37:17;;;;;;;57.05;34.33;;;;;;;0.32;62.48;100748.80;1734703;81;20922;-67
2022/03/15 01:39:44;;;;;;;52.83;32.75;;;;;;;0.28;62.41;100757.30;1737458;81;21838;-67
2022/03/15 01:42:11;;;;;;;46.95;32.58;;;;;;;0.19;62.36;100760.20;1738202;81;20891;-67
2022/03/15 01:44:41;;;;;;;50.43;32.00;;;;;;;0.13;62.44;100755.44;1736846;81;21471;-67
2022/03/15 01:47:07;;;;;;;51.92;32.33;;;;;;;0.07;62.51;100754.94;1727302;82;20980;-67
2022/03/15 01:49:34;;;;;;;47.65;31.75;;;;;;;0.08;62.71;100755.80;1743946;81;20944;-67
2022/03/15 01:52:01;;;;;;;57.78;39.85;;;;;;;0.09;62.66;100752.41;1743808;81;21075;-67
2022/03/15 01:54:28;;;;;;;51.73;34.77;;;;;;;0.03;62.60;100764.75;1747317;80;20905;-66
2022/03/15 01:56:54;;;;;;;58.98;37.83;;;;;;;-0.02;62.70;100763.83;1744932;80;20985;-67
2022/03/15 01:59:21;;;;;;;61.10;37.73;;;;;;;-0.09;62.66;100764.58;1744323;80;20932;-67
2022/03/15 02:01:48;;;;;;;58.83;34.47;;;;;;;-0.18;62.67;100773.02;1744683;80;20952;-66
2022/03/15 02:04:17;;;;;;;49.55;32.17;;;;;;;-0.27;62.70;100760.08;1740707;81;21627;-67
2022/03/15 02:06:50;;;;;;;51.10;32.83;;;;;;;-0.33;62.83;100760.86;1741972;80;20950;-67
2022/03/15 02:09:16;;;;;;;49.03;32.38;;;;;;;-0.37;62.89;100759.07;1740578;81;20930;-68
2022/03/15 02:11:43;;;;;;;51.65;32.95;;;;;;;-0.41;62.91;100762.45;1733005;81;20922;-67
2022/03/15 02:14:10;;;;;;;44.93;31.15;;;;;;;-0.40;62.92;100759.45;1735098;81;20993;-67
2022/03/15 02:16:37;;;;;;;49.85;32.65;;;;;;;-0.40;62.94;100759.03;1741666;82;21114;-67
2022/03/15 02:19:04;;;;;;;42.38;29.95;;;;;;;-0.42;62.96;100758.17;1739002;81;20905;-67
2022/03/15 02:21:31;;;;;;;47.50;31.45;;;;;;;-0.42;63.10;100750.47;1742631;82;26929;-67
2022/03/15 02:23:58;;;;;;;46.75;31.55;;;;;;;-0.45;63.04;100751.69;1738565;81;20926;-67
2022/03/15 02:26:25;;;;;;;47.80;33.15;;;;;;;-0.46;63.08;100747.41;1737547;81;20953;-66
2022/03/15 02:28:51;;;;;;;54.53;32.67;;;;;;;-0.45;63.07;100751.69;1742643;81;21047;-67
2022/03/15 02:31:19;;;;;;;44.23;30.80;;;;;;;-0.43;63.11;100751.30;1739832;81;21467;-67
2022/03/15 02:33:47;;;;;;;54.25;32.28;;;;;;;-0.41;63.17;100756.03;1737800;81;20902;-67
2022/03/15 02:36:15;;;;;;;;;;;;;;;-0.41;63.21;100753.47;1740103;81;20910;-67
2022/03/15 02:38:45;;;;;;;48.48;32.17;;;;;;;-0.46;63.15;100749.55;1735481;81;20104;-67
2022/03/15 02:41:13;;;;;;;58.58;33.25;;;;;;;-0.49;63.16;100753.78;1733947;81;21047;-67
2022/03/15 02:43:42;;;;;;;48.02;33.02;;;;;;;-0.49;63.26;100744.80;1734718;81;21431;-67
2022/03/15 02:46:08;;;;;;;54.18;33.67;;;;;;;-0.46;63.25;100740.98;1739772;81;20900;-66
2022/03/15 02:48:38;;;;;;;52.20;32.85;;;;;;;-0.41;63.37;100746.20;1738178;81;20993;-67
2022/03/15 02:51:11;;;;;;;53.15;33.08;;;;;;;-0.34;63.49;100739.86;1735345;81;20906;-67
2022/03/15 02:53:38;;;;;;;57.98;31.73;;;;;;;-0.30;63.46;100732.66;1738788;81;21077;-67
2022/03/15 02:56:12;;;;;;;45.30;31.90;;;;;;;-0.29;63.39;100727.95;1737243;80;20910;-67
2022/03/15 02:58:40;;;;;;;48.87;32.08;;;;;;;-0.24;63.37;100725.03;1739945;81;22368;-66
2022/03/15 03:01:07;;;;;;;43.60;30.88;;;;;;;-0.17;63.46;100731.09;1733802;81;21502;-67
2022/03/15 03:03:34;;;;;;;;;;;;;;;-0.21;63.54;100710.53;1742265;81;20945;-67
2022/03/15 03:06:01;;;;;;;46.10;30.82;;;;;;;-0.17;63.60;100722.54;1739182;81;21206;-68
2022/03/15 03:08:28;;;;;;;41.35;27.37;;;;;;;-0.28;63.44;100723.28;1744586;81;20914;-68
2022/03/15 03:10:55;;;;;;;56.63;32.98;;;;;;;-0.47;63.22;100727.73;1742322;81;20925;-67
2022/03/15 03:13:26;;;;;;;49.65;31.57;;;;;;;-0.75;63.17;100736.31;1736769;81;27079;-67
2022/03/15 03:15:54;;;;;;;47.70;31.07;;;;;;;-0.99;63.32;100731.66;1749549;81;20937;-67
2022/03/15 03:18:20;;;;;;;51.83;31.10;;;;;;;-1.13;63.66;100733.99;1754090;81;21856;-67
2022/03/15 03:20:47;;;;;;;43.13;29.50;;;;;;;-1.18;63.87;100740.73;1744061;81;20901;-67
2022/03/15 03:23:15;;;;;;;53.23;31.60;;;;;;;-1.17;64.00;100728.81;1714730;82;20907;-67
2022/03/15 03:25:42;;;;;;;52.78;32.30;;;;;;;-1.20;63.97;100729.63;1691414;83;20882;-67
2022/03/15 03:28:08;;;;;;;45.00;29.75;;;;;;;-1.29;63.85;100734.56;1717731;82;21559;-67
2022/03/15 03:30:37;;;;;;;44.03;30.67;;;;;;;-1.43;63.75;100733.47;1751399;79;21790;-67
2022/03/15 03:33:04;;;;;;;46.33;29.27;;;;;;;-1.63;63.75;100736.53;1749781;81;20918;-67
2022/03/15 03:35:31;;;;;;;53.48;32.78;;;;;;;-1.81;63.78;100741.33;1749385;81;20965;-67
2022/03/15 03:37:58;;;;;;;47.93;33.27;;;;;;;-1.95;63.90;100741.48;1753220;81;20926;-66
2022/03/15 03:40:24;;;;;;;53.90;35.20;;;;;;;-2.05;64.04;100748.95;1746836;81;20957;-67
2022/03/15 03:42:51;;;;;;;50.17;31.33;;;;;;;-2.08;64.18;100745.05;1749721;80;21937;-67
2022/03/15 03:45:18;;;;;;;43.00;30.23;;;;;;;-2.13;64.35;100747.95;1711295;82;20914;-67
2022/03/15 03:47:45;;;;;;;50.55;31.68;;;;;;;-2.17;64.53;100739.75;1749455;81;20929;-67
2022/03/15 03:50:11;;;;;;;47.93;30.80;;;;;;;-2.22;64.53;100738.79;1745179;81;21520;-67
2022/03/15 03:52:38;;;;;;;50.38;33.67;;;;;;;-2.28;64.50;100749.76;1741818;81;20902;-67
2022/03/15 03:55:05;;;;;;;56.48;34.13;;;;;;;-2.38;64.44;100748.24;1740018;81;21046;-67
2022/03/15 03:57:32;;;;;;;61.35;35.63;;;;;;;-2.49;64.55;100733.97;1743364;81;20933;-67
2022/03/15 03:59:59;;;;;;;;;;;;;;;-2.53;64.65;100748.78;1719313;82;20936;-67
2022/03/15 04:02:26;;;;;;;59.42;34.53;;;;;;;-2.55;64.85;100760.27;1743414;81;20094;-67
2022/03/15 04:04:54;;;;;;;52.05;33.08;;;;;;;-2.60;64.93;100755.87;1736222;81;21697;-67
2022/03/15 04:07:21;;;;;;;55.33;34.03;;;;;;;-2.54;65.08;100741.53;1704640;82;21268;-67
2022/03/15 04:09:47;;;;;;;55.30;35.38;;;;;;;-2.37;65.37;100744.45;1694721;82;20999;-67
2022/03/15 04:12:20;;;;;;;55.12;37.80;;;;;;;-2.25;65.40;100736.17;1697408;82;21564;-66
2022/03/15 04:14:45;;;;;;;53.10;34.23;;;;;;;-2.17;65.37;100736.34;1726683;83;20937;-67
2022/03/15 04:17:12;;;;;;;58.83;38.08;;;;;;;-2.12;65.31;100730.48;1726708;83;20910;-66
2022/03/15 04:19:38;;;;;;;50.00;33.67;;;;;;;-2.10;65.32;100728.83;1726513;82;22055;-67
2022/03/15 04:22:05;;;;;;;57.05;32.42;;;;;;;-2.09;65.40;100733.09;1729049;81;21597;-67
2022/03/15 04:24:32;;;;;;;52.30;34.67;;;;;;;-2.10;65.43;100728.83;1729254;81;21475;-67
2022/03/15 04:27:04;;;;;;;62.62;34.38;;;;;;;-2.12;65.45;100734.73;1729388;83;20882;-66
2022/03/15 04:29:31;;;;;;;55.73;35.28;;;;;;;-2.15;65.44;100727.86;1728476;81;20938;-66
2022/03/15 04:31:58;;;;;;;87.12;37.40;;;;;;;-2.18;65.57;100730.36;1734329;80;21855;-69
2022/03/15 04:34:25;;;;;;;64.90;36.63;;;;;;;-2.20;65.58;100728.18;1697300;82;20951;-65
2022/03/15 04:36:51;;;;;;;61.53;35.35;;;;;;;-2.22;65.60;100727.70;1704632;83;21030;-68
2022/03/15 04:39:18;;;;;;;65.05;38.15;;;;;;;-2.25;65.67;100729.35;1699058;82;21015;-66
2022/03/15 04:41:45;;;;;;;82.97;36.57;;;;;;;-2.25;65.69;100724.66;1702977;82;20955;-66
2022/03/15 04:44:13;;;;;;;;;;;;;;;-2.29;65.75;100726.72;1704197;82;21006;-66
2022/03/15 04:46:39;;;;;;;62.23;33.80;;;;;;;-2.31;65.88;100732.20;1724602;81;20450;-66
2022/03/15 04:49:06;;;;;;;57.65;36.80;;;;;;;-2.37;65.83;100721.43;1701456;82;21528;-66
2022/03/15 04:51:33;;;;;;;62.25;34.00;;;;;;;-2.45;65.74;100727.22;1729410;81;20870;-66
2022/03/15 04:53:59;;;;;;;64.03;33.23;;;;;;;-2.52;65.79;100727.09;1729475;82;20937;-66
2022/03/15 04:56:26;;;;;;;61.70;33.80;;;;;;;-2.55;65.92;100729.58;1729046;81;21849;-66
2022/03/15 04:58:53;;;;;;;55.10;36.50;;;;;;;-2.61;65.92;100736.23;1728701;83;20922;-67
2022/03/15 05:01:20;;;;;;;58.83;35.58;;;;;;;-2.66;66.09;100738.71;1731733;81;21618;-66
2022/03/15 05:03:47;;;;;;;61.95;34.50;;;;;;;-2.65;66.12;100736.59;1724494;83;21537;-67
2022/03/15 05:06:13;;;;;;;56.50;34.30;;;;;;;-2.63;66.27;100736.22;1704584;82;20918;-66
2022/03/15 05:08:40;;;;;;;56.95;32.60;;;;;;;-2.64;66.23;100729.36;1734775;81;21916;-67
2022/03/15 05:11:06;;;;;;;50.63;35.20;;;;;;;-2.63;66.31;100736.22;1738782;81;20854;-68
2022/03/15 05:13:44;;;;;;;53.25;32.38;;;;;;;-2.65;66.36;100737.87;1741171;81;21477;-65
2022/03/15 05:16:14;;;;;;;53.58;35.00;;;;;;;-2.66;66.38;100738.71;1707173;82;21488;-66
2022/03/15 05:18:43;;;;;;;62.20;35.30;;;;;;;-2.61;66.61;100742.20;1717690;82;20886;-70
2022/03/15 05:21:14;;;;;;;52.62;33.42;;;;;;;-2.48;66.71;100744.22;1710459;83;21037;-66
2022/03/15 05:23:38;;;;;;;55.30;36.80;;;;;;;-2.29;66.76;100744.63;1706801;82;20957;-66
2022/03/15 05:26:04;;;;;;;56.63;36.63;;;;;;;-2.04;66.82;100741.73;1714446;82;20999;-66
2022/03/15 05:28:31;;;;;;;57.35;36.10;;;;;;;-1.67;67.06;100734.77;1705161;82;20949;-67
2022/03/15 05:30:58;;;;;;;51.87;35.93;;;;;;;-1.22;67.04;100746.66;1721719;83;20923;-67
2022/03/15 05:33:24;;;;;;;58.90;35.80;;;;;;;-0.80;66.97;100745.63;1727985;81;21473;-67
2022/03/15 05:35:51;;;;;;;52.40;33.57;;;;;;;-0.41;66.84;100741.92;1717958;82;22044;-68
2022/03/15 05:38:18;;;;;;;53.75;35.15;;;;;;;-0.04;66.64;100742.39;1748077;81;21471;-68
2022/03/15 05:40:44;;;;;;;50.57;34.00;;;;;;;0.32;66.54;100739.81;1750110;80;21554;-68
2022/03/15 05:43:12;;;;;;;57.17;36.55;;;;;;;0.71;66.57;100739.77;1758482;80;21136;-67
2022/03/15 05:45:39;;;;;;;50.23;36.23;;;;;;;1.13;66.54;100731.98;1749608;80;21189;-68
2022/03/15 05:48:06;;;;;;;55.00;34.78;;;;;;;1.56;66.35;100742.97;1744459;80;20920;-68
2022/03/15 05:50:40;;;;;;;81.60;35.38;;;;;;;1.93;66.28;100743.18;1744207;80;20954;-67
2022/03/15 05:53:05;;;;;;;60.03;34.08;;;;;;;2.29;65.93;100735.56;1755667;81;20847;-68
2022/03/15 05:55:33;;;;;;;57.65;33.95;;;;;;;2.56;65.70;100732.19;1749860;80;20965;-68
2022/03/15 05:58:02;;;;;;;57.78;32.85;;;;;;;2.90;65.74;100730.50;1747600;80;21039;-68
2022/03/15 06:00:32;;;;;;;59.18;31.82;;;;;;;3.13;65.35;100729.19;1753672;81;20903;-68
2022/03/15 06:02:59;;;;;;;56.15;32.55;;;;;;;3.35;65.51;100727.02;1753225;80;20922;-68
2022/03/15 06:05:32;;;;;;;59.45;32.55;;;;;;;3.63;65.43;100715.34;1748700;80;21510;-68
2022/03/15 06:08:02;;;;;;;58.35;34.25;;;;;;;3.67;64.95;100722.23;1751190;81;20910;-68
2022/03/15 06:10:31;;;;;;;60.10;32.95;;;;;;;3.81;65.05;100719.16;1715108;81;21104;-68
2022/03/15 06:12:58;;;;;;;54.65;30.30;;;;;;;4.01;64.92;100713.05;1733935;81;20866;-69
2022/03/15 06:15:25;;;;;;;58.08;31.35;;;;;;;4.08;64.74;100712.14;1712238;83;20908;-68
2022/03/15 06:18:01;;;;;;;69.85;33.75;;;;;;;4.13;64.77;100715.56;1734692;81;21424;-68
2022/03/15 06:20:26;;;;;;;41.90;26.20;;;;;;;4.28;64.70;100712.47;1743385;81;20961;-69
2022/03/15 06:22:53;;;;;;;44.35;27.60;;;;;;;4.48;64.84;100714.49;1752928;81;20977;-67
2022/03/15 06:25:21;;;;;;;46.53;28.32;;;;;;;4.71;64.89;100721.68;1724614;81;20977;-73
2022/03/15 06:27:49;;;;;;;40.08;28.90;;;;;;;4.97;64.79;100719.32;1739916;81;20888;-66
2022/03/15 06:30:16;;;;;;;42.17;28.65;;;;;;;5.56;64.84;100697.16;1735426;81;20914;-66
2022/03/15 06:32:43;;;;;;;39.10;26.77;;;;;;;5.56;64.84;100697.16;1734692;82;20954;-66
2022/03/15 06:35:12;;;;;;;50.73;33.75;;;;;;;5.92;64.73;100714.45;1735356;82;21408;-66
2022/03/15 06:37:45;;;;;;;67.70;38.38;;;;;;;6.04;64.41;100717.36;1738737;81;20882;-67
2022/03/15 06:40:21;;;;;;;66.12;40.23;;;;;;;6.11;64.42;100718.16;1737977;81;20952;-67
2022/03/15 06:42:47;;;;;;;64.53;41.98;;;;;;;6.38;64.49;100709.97;1752098;82;20895;-66
2022/03/15 06:45:15;;;;;;;73.90;39.53;;;;;;;6.34;64.04;100708.31;1716560;82;35357;-66
2022/03/15 06:47:42;;;;;;;51.33;34.08;;;;;;;6.36;64.30;100709.58;1741778;81;22258;-65
2022/03/15 06:50:11;;;;;;;54.67;38.85;;;;;;;6.48;64.31;100716.75;1740137;81;20918;-66
2022/03/15 06:52:39;;;;;;;109.10;62.90;;;;;;;6.64;64.18;100715.25;1735329;81;20918;-67
2022/03/15 06:55:07;;;;;;;59.48;35.45;;;;;;;6.77;64.06;100720.64;1702168;82;20911;-66
2022/03/15 06:57:34;;;;;;;76.80;33.60;;;;;;;6.86;63.98;100711.44;1708859;82;20934;-66
2022/03/15 07:00:05;;;;;;;122.90;35.30;;;;;;;6.97;63.88;100709.08;1731403;81;21053;-67
2022/03/15 07:02:31;;;;;;;62.93;30.60;;;;;;;6.93;63.62;100706.54;1727870;81;20954;-66
2022/03/15 07:04:58;;;;;;;49.18;28.15;;;;;;;6.91;63.63;100713.48;1751907;81;20977;-66
2022/03/15 07:07:25;;;;;;;106.03;32.17;;;;;;;6.92;63.26;100710.03;1742270;81;20936;-66
2022/03/15 07:09:56;;;;;;;60.35;29.52;;;;;;;6.86;63.28;100719.63;1709961;82;20952;-66
2022/03/15 07:12:24;;;;;;;47.95;32.35;;;;;;;6.76;63.34;100724.13;1723451;81;22035;-66
2022/03/15 07:14:51;;;;;;;43.98;29.42;;;;;;;6.82;63.76;100721.43;1724977;82;20931;-66
2022/03/15 07:17:19;;;;;;;48.02;27.77;;;;;;;7.01;63.33;100723.74;1730858;81;20910;-66
2022/03/15 07:19:47;;;;;;;51.37;29.07;;;;;;;7.17;63.21;100719.56;1738968;81;20937;-66
2022/03/15 07:22:14;;;;;;;86.20;62.38;;;;;;;7.27;63.14;100721.54;1702385;82;20898;-66
2022/03/15 07:24:41;;;;;;;50.20;31.40;;;;;;;7.38;63.36;100719.61;1710238;82;21051;-66
2022/03/15 07:27:07;;;;;;;93.20;55.80;;;;;;;7.64;63.46;100718.26;1708022;82;21507;-66
2022/03/15 07:29:34;;;;;;;58.70;40.40;;;;;;;7.79;63.26;100716.67;1749455;80;21176;-66
2022/03/15 07:32:01;;;;;;;49.42;31.35;;;;;;;7.78;62.96;100723.19;1762712;80;20957;-67
2022/03/15 07:34:28;;;;;;;41.98;27.70;;;;;;;7.90;63.59;100726.87;1754048;80;20915;-66
2022/03/15 07:36:54;;;;;;;40.08;25.95;;;;;;;8.16;63.53;100714.61;1766734;80;21009;-67
2022/03/15 07:39:21;;;;;;;42.57;25.53;;;;;;;8.28;63.15;100711.73;1717186;82;20950;-66
2022/03/15 07:41:50;;;;;;;46.37;25.70;;;;;;;8.28;62.96;100716.94;1734172;81;21475;-66
2022/03/15 07:44:17;;;;;;;55.12;24.77;;;;;;;8.35;63.00;100720.73;1730465;82;20986;-66
2022/03/15 07:46:48;;;;;;;34.78;23.07;;;;;;;8.39;62.91;100721.94;1726256;81;20971;-68
2022/03/15 07:49:17;;;;;;;36.48;25.10;;;;;;;8.42;62.70;100717.11;1734832;81;21890;-67
2022/03/15 07:51:46;;;;;;;27.70;21.50;;;;;;;8.40;61.54;100720.19;1733770;81;20906;-67
2022/03/15 07:54:15;;;;;;;33.67;22.22;;;;;;;8.40;61.54;100720.19;1734525;81;20910;-68
2022/03/15 07:56:42;;;;;;;36.23;22.90;;;;;;;8.03;61.46;100719.65;1739924;82;20954;-70
2022/03/15 07:59:10;;;;;;;;;;;;;;;7.93;61.23;100724.65;1744942;82;20989;-67
2022/03/15 08:01:37;;;;;;;43.65;28.62;;;;;;;7.73;61.20;100728.50;1744996;81;20967;-67
2022/03/15 08:04:06;;;;;;;54.55;25.10;;;;;;;7.78;61.58;100731.84;1738569;81;21594;-67
2022/03/15 08:06:39;;;;;;;39.90;29.35;;;;;;;7.83;61.51;100741.71;1735293;82;20938;-67
2022/03/15 08:09:09;;;;;;;66.40;26.20;;;;;;;7.91;61.33;100740.72;1740310;81;20935;-68
2022/03/15 08:11:37;;;;;;;198.55;34.78;;;;;;;8.01;61.17;100739.20;1730598;81;21515;-67
2022/03/15 08:14:09;;;;;;;48.08;24.40;;;;;;;7.99;60.57;100741.42;1739987;81;21946;-67
2022/03/15 08:16:37;;;;;;;76.57;25.15;;;;;;;7.92;60.43;100745.02;1738277;82;20933;-67
2022/03/15 08:19:07;;;;;;;58.02;25.77;;;;;;;7.84;60.70;100740.84;1740679;82;21014;-68
2022/03/15 08:21:36;;;;;;;37.88;25.77;;;;;;;7.98;60.82;100744.47;1737864;82;20958;-68
2022/03/15 08:24:16;;;;;;;57.55;26.95;;;;;;;8.17;60.78;100740.17;1741021;81;21491;-67
2022/03/15 08:26:43;;;;;;;121.50;32.05;;;;;;;8.34;60.64;100748.92;1733562;82;21020;-67
2022/03/15 08:29:14;;;;;;;42.05;24.07;;;;;;;8.54;60.62;100753.27;1733641;82;20977;-68
2022/03/15 08:31:42;;;;;;;39.65;23.50;;;;;;;8.66;60.38;100749.10;1712185;82;20966;-67
2022/03/15 08:34:09;;;;;;;37.33;27.00;;;;;;;8.53;59.68;100749.41;1696739;82;20941;-68
2022/03/15 08:36:36;;;;;;;36.08;24.00;;;;;;;8.39;59.49;100747.11;1707083;82;21702;-68
2022/03/15 08:39:04;;;;;;;64.67;24.52;;;;;;;8.40;59.50;100741.00;1716769;82;22046;-68
2022/03/15 08:41:31;;;;;;;56.50;25.25;;;;;;;8.45;59.72;100750.88;1709853;83;20907;-68
2022/03/15 08:43:58;;;;;;;129.20;35.30;;;;;;;8.53;59.69;100745.50;1752763;81;20899;-67
2022/03/15 08:46:27;;;;;;;213.10;33.35;;;;;;;8.58;59.40;100752.32;1750540;81;20918;-68
2022/03/15 08:48:55;;;;;;;121.20;31.00;;;;;;;8.70;59.41;100753.33;1744104;81;20992;-68
2022/03/15 08:51:25;;;;;;;59.08;25.88;;;;;;;8.81;59.46;100745.73;1741594;79;20954;-68
2022/03/15 08:53:52;;;;;;;69.27;27.32;;;;;;;8.95;59.31;100742.34;1746629;81;21471;-68
2022/03/15 08:56:19;;;;;;;62.00;26.45;;;;;;;9.14;59.29;100753.17;1719290;82;24327;-68
2022/03/15 08:58:46;;;;;;;46.20;25.15;;;;;;;9.26;59.22;100752.85;1712118;82;20973;-68
2022/03/15 09:01:12;;;;;;;63.70;24.83;;;;;;;9.34;59.10;100750.91;1721316;82;20958;-68
2022/03/15 09:03:40;;;;;;;60.60;26.00;;;;;;;9.49;59.07;100752.25;1753680;80;21820;-67
2022/03/15 09:06:06;;;;;;;;;;;;;;;9.58;58.97;100741.60;1735428;81;21585;-68
2022/03/15 09:08:35;;;;;;;63.13;24.52;;;;;;;9.63;58.44;100738.43;1720020;81;20077;-73
2022/03/15 09:11:03;;;;;;;50.63;24.77;;;;;;;9.70;58.66;100735.65;1731526;81;20906;-68
2022/03/15 09:13:33;;;;;;;32.23;21.62;;;;;;;9.80;58.61;100735.78;1734118;81;20922;-68
2022/03/15 09:16:00;;;;;;;26.57;20.27;;;;;;;9.90;58.45;100739.84;1731333;82;21190;-67
2022/03/15 09:18:31;;;;;;;45.63;21.87;;;;;;;9.98;58.31;100737.88;1736807;81;20926;-67
2022/03/15 09:21:01;;;;;;;36.70;19.45;;;;;;;10.06;58.05;100732.45;1729167;82;20917;-67
2022/03/15 09:23:28;;;;;;;57.73;21.85;;;;;;;9.87;57.71;100698.20;1731922;82;20942;-67
2022/03/15 09:25:55;;;;;;;40.55;20.02;;;;;;;10.02;57.70;100733.42;1730310;82;21427;-68
2022/03/15 09:28:24;;;;;;;67.45;20.23;;;;;;;10.01;57.47;100732.57;1732638;82;21047;-67
2022/03/15 09:30:51;;;;;;;53.55;20.23;;;;;;;10.11;57.25;100729.69;1732126;81;20933;-67
2022/03/15 09:33:19;;;;;;;27.15;18.60;;;;;;;10.11;57.25;100729.69;1727678;82;20958;-67
2022/03/15 09:35:46;;;;;;;37.55;19.60;;;;;;;9.98;56.19;100731.36;1732400;81;21610;-67
2022/03/15 09:38:15;;;;;;;21.12;16.45;;;;;;;9.90;56.90;100734.63;1733681;81;20907;-67
2022/03/15 09:40:44;;;;;;;42.95;19.77;;;;;;;9.94;56.22;100734.97;1733260;81;21043;-67
2022/03/15 09:43:19;;;;;;;25.50;19.35;;;;;;;9.85;55.75;100726.08;1727748;81;20930;-67
2022/03/15 09:45:53;;;;;;;35.88;20.17;;;;;;;9.69;55.30;100724.78;1731032;81;20902;-68
2022/03/15 09:48:23;;;;;;;26.00;18.75;;;;;;;9.52;55.59;100727.43;1732317;82;20886;-68
2022/03/15 09:50:54;;;;;;;26.52;17.92;;;;;;;9.67;56.08;100722.69;1736173;81;20970;-70
2022/03/15 09:53:27;;;;;;;68.97;20.75;;;;;;;9.85;55.68;100720.86;1727952;81;20898;-69
2022/03/15 09:55:57;;;;;;;84.00;22.35;;;;;;;9.90;55.74;100726.80;1732381;82;20922;-67
2022/03/15 09:58:27;;;;;;;63.85;21.80;;;;;;;10.08;55.76;100721.07;1732076;82;20894;-67
2022/03/15 10:00:57;;;;;;;30.25;18.10;;;;;;;10.27;55.59;100719.23;1731091;82;21063;-67
2022/03/15 10:03:25;;;;;;;42.00;19.20;;;;;;;10.32;55.38;100722.56;1735772;81;21431;-67
2022/03/15 10:05:52;;;;;;;49.65;19.40;;;;;;;10.40;55.33;100723.65;1745411;80;21045;-67
2022/03/15 10:08:23;;;;;;;40.75;17.50;;;;;;;10.45;55.22;100719.14;1749017;81;20922;-67
2022/03/15 10:10:52;;;;;;;29.07;17.35;;;;;;;10.36;54.06;100721.55;1715216;83;20941;-67
2022/03/15 10:13:22;;;;;;;21.73;17.50;;;;;;;10.19;54.28;100714.66;1715357;83;20945;-67
2022/03/15 10:16:00;;;;;;;57.70;17.87;;;;;;;10.08;53.94;100716.27;1745970;81;21605;-67
2022/03/15 10:18:28;;;;;;;66.47;19.60;;;;;;;10.10;54.37;100713.18;1743218;81;21206;-68
2022/03/15 10:20:54;;;;;;;;;;;;;;;10.26;54.31;100705.76;1751090;81;20966;-67
2022/03/15 10:23:29;;;;;;;83.27;21.55;;;;;;;10.35;54.16;100705.95;1723325;82;20088;-67
2022/03/15 10:25:53;;;;;;;67.03;18.30;;;;;;;10.42;54.23;100708.77;1702462;83;21523;-68
2022/03/15 10:28:25;;;;;;;68.95;18.30;;;;;;;10.52;54.04;100708.44;1756365;81;20953;-68
2022/03/15 10:30:56;;;;;;;68.12;20.68;;;;;;;10.62;53.99;100704.25;1748235;81;21100;-68
2022/03/15 10:33:23;;;;;;;27.55;18.85;;;;;;;10.72;54.09;100705.19;1684467;84;20978;-68
2022/03/15 10:35:50;;;;;;;47.05;20.25;;;;;;;10.80;54.00;100704.95;1739918;80;20918;-68
2022/03/15 10:38:18;;;;;;;39.20;18.35;;;;;;;10.83;53.98;100700.93;1735444;82;20930;-68
2022/03/15 10:40:48;;;;;;;24.15;18.70;;;;;;;10.87;53.80;100701.25;1744033;82;20922;-68
2022/03/15 10:43:23;;;;;;;27.07;19.52;;;;;;;10.93;54.01;100697.58;1744100;82;21796;-68
2022/03/15 10:45:57;;;;;;;26.05;19.50;;;;;;;11.05;53.92;100696.31;1737065;81;20886;-68
2022/03/15 10:48:29;;;;;;;23.73;17.62;;;;;;;11.02;53.51;100699.03;1741920;81;20950;-68
2022/03/15 10:51:03;;;;;;;36.40;19.65;;;;;;;10.95;53.38;100696.62;1715750;81;20977;-68
2022/03/15 10:53:41;;;;;;;24.75;18.12;;;;;;;10.77;53.31;100694.61;1733975;81;21275;-68
2022/03/15 10:56:24;;;;;;;;;;;;;;;10.76;53.39;100695.52;1736350;82;20968;-68
2022/03/15 10:59:01;;;;;;;20.43;16.73;;;;;;;10.91;53.63;100680.63;1753407;81;20403;-66
2022/03/15 11:01:38;;;;;;;26.10;18.77;;;;;;;10.86;53.15;100678.62;1741599;81;20906;-67
2022/03/15 11:04:08;;;;;;;26.37;18.98;;;;;;;10.73;52.51;100679.95;1758201;81;20965;-66
2022/03/15 11:06:47;;;;;;;20.32;17.52;;;;;;;10.67;53.33;100680.13;1719149;82;20957;-66
2022/03/15 11:09:31;;;;;;;22.98;18.75;;;;;;;10.60;52.61;100676.02;1686529;83;21095;-67
2022/03/15 11:12:04;;;;;;;29.52;19.87;;;;;;;10.44;52.88;100674.34;1710646;83;20918;-66
2022/03/15 11:14:40;;;;;;;26.40;19.05;;;;;;;10.27;52.86;100686.61;1689602;84;20907;-66
2022/03/15 11:17:16;;;;;;;20.90;17.42;;;;;;;10.22;53.22;100678.02;1692692;84;21040;-66
2022/03/15 11:19:52;;;;;;;27.40;20.55;;;;;;;10.35;53.27;100685.92;1690820;84;20979;-66